createdAt,value
2019-05-20T00:02:03.183Z,10.30
2019-05-20T00:04:33.039Z,10.00
2019-05-20T00:07:03.197Z,8.33
2019-05-20T00:09:33.031Z,10.23
2019-05-20T00:12:02.881Z,8.83
2019-05-20T00:14:32.740Z,8.60
2019-05-20T00:17:02.653Z,8.60
2019-05-20T00:19:32.648Z,9.20
2019-05-20T00:22:02.556Z,11.60
2019-05-20T00:24:32.399Z,11.20
2019-05-20T00:27:02.244Z,11.03
2019-05-20T00:29:32.084Z,10.80
2019-05-20T00:32:01.916Z,9.60
2019-05-20T00:34:35.271Z,13.40
2019-05-20T00:37:03.257Z,12.07
2019-05-20T00:39:33.336Z,15.03
2019-05-20T00:42:03.196Z,10.93
2019-05-20T00:44:33.049Z,12.57
2019-05-20T00:47:02.893Z,14.70
2019-05-20T00:49:32.728Z,13.40
2019-05-20T00:52:02.856Z,12.97
2019-05-20T00:54:32.770Z,13.53
2019-05-20T00:57:02.622Z,15.87
2019-05-20T00:59:32.479Z,15.90
2019-05-20T01:02:02.451Z,15.40
2019-05-20T01:04:32.305Z,16.67
2019-05-20T01:07:02.253Z,16.97
2019-05-20T01:09:32.092Z,18.70
2019-05-20T01:12:01.948Z,17.33
2019-05-20T01:14:31.779Z,16.57
2019-05-20T01:17:02.265Z,16.33
2019-05-20T01:19:32.256Z,16.27
2019-05-20T01:22:02.079Z,15.80
2019-05-20T01:24:31.933Z,18.37
2019-05-20T01:27:01.863Z,17.10
2019-05-20T01:29:31.720Z,16.90
2019-05-20T01:32:01.569Z,18.13
2019-05-20T01:34:31.607Z,18.00
2019-05-20T01:37:01.528Z,19.20
2019-05-20T01:39:31.461Z,18.07
2019-05-20T01:42:01.293Z,18.27
2019-05-20T01:44:31.124Z,21.07
2019-05-20T01:47:01.128Z,25.67
2019-05-20T01:49:30.996Z,25.10
2019-05-20T01:52:00.849Z,25.17
2019-05-20T01:54:30.720Z,18.23
2019-05-20T01:57:00.635Z,20.57
2019-05-20T01:59:30.494Z,20.83
2019-05-20T02:02:00.447Z,24.00
2019-05-20T02:04:30.277Z,22.07
2019-05-20T02:07:00.207Z,21.43
2019-05-20T02:09:30.053Z,26.37
2019-05-20T02:11:59.928Z,29.10
2019-05-20T02:14:32.387Z,21.27
2019-05-20T02:17:02.956Z,23.40
2019-05-20T02:19:33.068Z,20.90
2019-05-20T02:22:02.940Z,20.07
2019-05-20T02:24:32.789Z,20.03
2019-05-20T02:27:02.687Z,26.40
2019-05-20T02:29:32.540Z,16.33
2019-05-20T02:32:02.417Z,22.13
2019-05-20T02:34:32.267Z,22.97
2019-05-20T02:37:02.145Z,21.60
2019-05-20T02:39:31.973Z,19.83
2019-05-20T02:42:01.913Z,22.77
2019-05-20T02:44:31.781Z,20.37
2019-05-20T02:47:01.606Z,22.77
2019-05-20T02:49:31.450Z,14.27
2019-05-20T02:52:01.339Z,16.50
2019-05-20T02:54:31.221Z,20.97
2019-05-20T02:57:01.051Z,16.00
2019-05-20T02:59:31.046Z,15.77
2019-05-20T03:02:00.897Z,15.87
2019-05-20T03:04:30.837Z,19.40
2019-05-20T03:07:00.694Z,18.43
2019-05-20T03:09:30.564Z,14.13
2019-05-20T03:12:00.415Z,16.30
2019-05-20T03:14:30.371Z,10.80
2019-05-20T03:17:00.239Z,12.13
2019-05-20T03:19:30.257Z,11.03
2019-05-20T03:22:00.119Z,12.47
2019-05-20T03:24:29.998Z,11.77
2019-05-20T03:26:59.828Z,10.77
2019-05-20T03:29:29.777Z,14.60
2019-05-20T03:31:59.776Z,12.70
2019-05-20T03:34:45.967Z,13.53
2019-05-20T03:37:01.171Z,20.87
2019-05-20T03:39:31.257Z,14.03
2019-05-20T03:42:01.158Z,11.93
2019-05-20T03:44:31.008Z,11.37
2019-05-20T03:47:00.860Z,14.37
2019-05-20T03:49:30.799Z,13.70
2019-05-20T03:52:00.651Z,15.17
2019-05-20T03:54:30.501Z,11.30
2019-05-20T03:57:00.353Z,11.57
2019-05-20T03:59:30.224Z,11.23
2019-05-20T04:02:00.059Z,9.97
2019-05-20T04:04:32.383Z,12.57
2019-05-20T04:07:02.241Z,9.93
2019-05-20T04:09:32.105Z,14.57
2019-05-20T04:12:01.947Z,9.93
2019-05-20T04:14:31.791Z,9.80
2019-05-20T04:17:01.801Z,8.13
2019-05-20T04:19:31.740Z,11.57
2019-05-20T04:22:01.628Z,8.27
2019-05-20T04:24:31.588Z,9.70
2019-05-20T04:27:01.926Z,9.40
2019-05-20T04:29:31.908Z,8.97
2019-05-20T04:32:01.779Z,10.27
2019-05-20T04:34:32.441Z,9.67
2019-05-20T04:37:02.474Z,11.50
2019-05-20T04:39:32.306Z,13.00
2019-05-20T04:42:06.308Z,12.13
2019-05-20T04:44:34.547Z,10.67
2019-05-20T04:47:04.471Z,11.17
2019-05-20T04:49:34.470Z,11.93
2019-05-20T04:52:04.439Z,9.97
2019-05-20T04:54:34.286Z,8.63
2019-05-20T04:57:04.289Z,12.57
2019-05-20T04:59:34.285Z,12.23
2019-05-20T05:02:04.178Z,10.03
2019-05-20T05:04:34.156Z,10.50
2019-05-20T05:07:04.372Z,9.67
2019-05-20T05:09:34.323Z,8.23
2019-05-20T05:12:04.226Z,8.67
2019-05-20T05:14:34.241Z,8.13
2019-05-20T05:17:04.374Z,9.83
2019-05-20T05:19:34.380Z,11.37
2019-05-20T05:22:04.649Z,10.07
2019-05-20T05:24:34.707Z,13.17
2019-05-20T05:27:04.830Z,10.43
2019-05-20T05:29:34.979Z,12.40
2019-05-20T05:32:04.918Z,13.23
2019-05-20T05:34:34.944Z,13.07
2019-05-20T05:37:04.982Z,11.00
2019-05-20T05:39:34.960Z,9.90
2019-05-20T05:42:05.034Z,12.43
2019-05-20T05:44:34.941Z,11.53
2019-05-20T05:47:04.899Z,10.43
2019-05-20T05:49:34.733Z,10.37
2019-05-20T05:52:04.714Z,9.33
2019-05-20T05:54:34.617Z,9.47
2019-05-20T05:57:04.579Z,8.00
2019-05-20T05:59:34.618Z,8.20
2019-05-20T06:02:04.612Z,8.67
2019-05-20T06:04:34.530Z,8.20
2019-05-20T06:07:04.409Z,7.80
2019-05-20T06:09:34.340Z,10.47
2019-05-20T06:12:04.382Z,7.47
2019-05-20T06:14:34.273Z,6.83
2019-05-20T06:17:04.159Z,10.07
2019-05-20T06:19:34.235Z,8.47
2019-05-20T06:22:04.291Z,8.03
2019-05-20T06:24:34.154Z,9.17
2019-05-20T06:27:04.020Z,9.07
2019-05-20T06:29:33.880Z,11.50
2019-05-20T06:32:03.833Z,11.73
2019-05-20T06:34:33.690Z,10.77
2019-05-20T06:37:05.533Z,9.93
2019-05-20T06:39:35.790Z,11.00
2019-05-20T06:42:05.661Z,9.70
2019-05-20T06:44:50.223Z,9.03
2019-05-20T06:47:07.181Z,7.10
2019-05-20T06:49:37.026Z,8.77
2019-05-20T06:52:07.002Z,6.90
2019-05-20T06:54:36.856Z,8.33
2019-05-20T06:57:06.846Z,6.57
2019-05-20T06:59:36.689Z,7.53
2019-05-20T07:02:06.752Z,7.00
2019-05-20T07:04:36.577Z,8.20
2019-05-20T07:07:20.003Z,5.97
2019-05-20T07:09:37.952Z,7.23
2019-05-20T07:12:07.791Z,6.80
2019-05-20T07:14:37.629Z,5.63
2019-05-20T07:17:07.546Z,5.77
2019-05-20T07:19:37.435Z,5.43
2019-05-20T07:22:07.459Z,5.63
2019-05-20T07:24:37.291Z,6.37
2019-05-20T07:27:07.302Z,6.07
2019-05-20T07:29:37.135Z,7.57
2019-05-20T07:32:07.032Z,9.07
2019-05-20T07:34:36.895Z,7.80
2019-05-20T07:37:06.780Z,9.00
2019-05-20T07:39:36.618Z,6.50
2019-05-20T07:42:06.457Z,6.30
2019-05-20T07:44:36.318Z,7.37
2019-05-20T07:47:06.360Z,8.57
2019-05-20T07:49:36.310Z,11.97
2019-05-20T07:52:06.501Z,8.33
2019-05-20T07:54:37.265Z,6.60
2019-05-20T07:57:10.377Z,8.20
2019-05-20T07:59:42.833Z,8.67
2019-05-20T08:02:12.905Z,8.87
2019-05-20T08:04:42.852Z,8.77
2019-05-20T08:07:27.453Z,8.33
2019-05-20T08:09:46.184Z,9.47
2019-05-20T08:12:16.191Z,10.07
2019-05-20T08:14:46.153Z,13.50
2019-05-20T08:17:34.997Z,11.10
2019-05-20T08:20:05.422Z,11.17
2019-05-20T08:22:35.282Z,14.50
2019-05-20T08:25:05.676Z,11.20
2019-05-20T08:27:35.691Z,12.97
2019-05-20T08:30:06.457Z,12.03
2019-05-20T08:32:36.400Z,11.60
2019-05-20T08:35:06.953Z,10.30
2019-05-20T08:37:45.331Z,10.93
2019-05-20T08:40:08.665Z,9.70
2019-05-20T08:42:38.524Z,11.13
2019-05-20T08:45:08.704Z,10.30
2019-05-20T08:47:38.656Z,11.33
2019-05-20T08:50:14.922Z,11.50
2019-05-20T08:52:40.473Z,8.73
2019-05-20T08:55:10.445Z,7.07
2019-05-20T08:57:40.406Z,6.80
2019-05-20T09:00:22.706Z,8.53
2019-05-20T09:02:48.117Z,15.23
2019-05-20T09:05:18.201Z,16.73
2019-05-20T09:08:01.413Z,19.90
2019-05-20T09:10:20.489Z,14.03
2019-05-20T09:12:50.342Z,18.07
2019-05-20T09:15:20.511Z,14.60
2019-05-20T09:17:51.418Z,10.13
2019-05-20T09:20:21.674Z,13.20
2019-05-20T09:22:51.698Z,11.60
2019-05-20T09:25:30.356Z,14.53
2019-05-20T09:28:00.891Z,18.80
2019-05-20T09:30:30.938Z,19.30
2019-05-20T09:33:01.034Z,17.07
2019-05-20T09:35:30.995Z,14.63
2019-05-20T09:38:00.962Z,19.67
2019-05-20T09:40:39.673Z,21.07
2019-05-20T09:43:09.653Z,18.73
2019-05-20T09:45:39.608Z,16.87
2019-05-20T09:48:10.015Z,13.13
2019-05-20T09:50:40.400Z,14.10
2019-05-20T09:53:10.652Z,18.83
2019-05-20T09:55:40.721Z,16.57
2019-05-20T09:58:10.719Z,11.90
2019-05-20T10:00:41.835Z,15.77
2019-05-20T10:03:11.693Z,14.17
2019-05-20T10:05:41.543Z,12.57
2019-05-20T10:08:12.657Z,11.53
2019-05-20T10:10:42.500Z,37.83
2019-05-20T10:13:12.367Z,14.80
2019-05-20T10:15:42.408Z,18.07
2019-05-20T10:18:12.391Z,19.07
2019-05-20T10:20:43.153Z,15.13
2019-05-20T10:23:15.756Z,16.83
2019-05-20T10:25:44.671Z,25.47
2019-05-20T10:28:14.589Z,20.90
2019-05-20T10:30:44.444Z,13.87
2019-05-20T10:33:14.299Z,13.87
2019-05-20T10:35:44.127Z,11.10
2019-05-20T10:38:14.105Z,13.20
2019-05-20T10:40:44.269Z,12.20
2019-05-20T10:43:14.121Z,12.57
2019-05-20T10:45:44.146Z,12.73
2019-05-20T10:48:14.055Z,13.83
2019-05-20T10:50:43.865Z,12.83
2019-05-20T10:53:13.717Z,14.70
2019-05-20T10:55:43.624Z,12.00
2019-05-20T10:58:13.584Z,14.37
2019-05-20T11:01:01.149Z,10.87
2019-05-20T11:03:14.932Z,10.03
2019-05-20T11:05:45.029Z,10.90
2019-05-20T11:08:15.498Z,11.07
2019-05-20T11:10:45.434Z,12.60
2019-05-20T11:13:15.325Z,11.53
2019-05-20T11:15:45.241Z,11.73
2019-05-20T11:18:15.176Z,12.43
2019-05-20T11:20:46.802Z,12.40
2019-05-20T11:23:16.753Z,13.47
2019-05-20T11:25:46.619Z,12.57
2019-05-20T11:28:16.532Z,12.77
2019-05-20T11:30:46.493Z,12.20
2019-05-20T11:33:16.340Z,12.40
2019-05-20T11:35:46.199Z,11.67
2019-05-20T11:38:16.091Z,14.43
2019-05-20T11:40:46.346Z,10.93
2019-05-20T11:43:16.288Z,12.03
2019-05-20T11:45:46.207Z,12.20
2019-05-20T11:48:16.169Z,13.77
2019-05-20T11:50:46.076Z,9.30
2019-05-20T11:53:15.980Z,10.90
2019-05-20T11:55:45.976Z,10.03
2019-05-20T11:58:16.975Z,10.67
2019-05-20T12:00:46.802Z,9.90
2019-05-20T12:03:16.842Z,11.13
2019-05-20T12:05:46.773Z,9.03
2019-05-20T12:08:16.765Z,10.50
2019-05-20T12:10:46.644Z,12.13
2019-05-20T12:13:16.480Z,10.30
2019-05-20T12:15:46.323Z,10.73
2019-05-20T12:18:16.265Z,12.60
2019-05-20T12:20:46.744Z,12.23
2019-05-20T12:23:16.908Z,12.50
2019-05-20T12:25:46.869Z,12.33
2019-05-20T12:28:16.910Z,13.20
2019-05-20T12:30:46.872Z,15.17
2019-05-20T12:33:19.193Z,11.97
2019-05-20T12:35:48.326Z,14.37
2019-05-20T12:38:18.300Z,12.83
2019-05-20T12:40:48.303Z,11.20
2019-05-20T12:43:18.384Z,12.83
2019-05-20T12:45:48.315Z,14.23
2019-05-20T12:48:18.647Z,13.27
2019-05-20T12:50:48.521Z,9.93
2019-05-20T12:53:18.579Z,11.47
2019-05-20T12:55:48.663Z,9.00
2019-05-20T12:58:18.639Z,9.93
2019-05-20T13:00:48.491Z,18.13
2019-05-20T13:03:18.495Z,13.17
2019-05-20T13:05:48.694Z,10.47
2019-05-20T13:08:18.613Z,10.90
2019-05-20T13:10:48.510Z,10.43
2019-05-20T13:13:18.580Z,12.40
2019-05-20T13:15:48.532Z,11.10
2019-05-20T13:18:18.474Z,10.30
2019-05-20T13:20:50.296Z,10.13
2019-05-20T13:23:20.286Z,9.20
2019-05-20T13:25:50.340Z,10.53
2019-05-20T13:28:20.313Z,13.30
2019-05-20T13:30:50.394Z,14.40
2019-05-20T13:33:20.392Z,12.60
2019-05-20T13:35:50.369Z,13.13
2019-05-20T13:38:20.484Z,18.00
2019-05-20T13:40:50.439Z,18.37
2019-05-20T13:43:20.319Z,20.27
2019-05-20T13:45:50.220Z,14.77
2019-05-20T13:48:20.326Z,13.23
2019-05-20T13:50:50.219Z,12.80
2019-05-20T13:53:20.727Z,13.20
2019-05-20T13:55:51.020Z,12.50
2019-05-20T13:58:22.530Z,11.47
2019-05-20T14:00:53.064Z,11.40
2019-05-20T14:03:22.915Z,13.40
2019-05-20T14:05:53.001Z,14.50
2019-05-20T14:08:23.933Z,13.50
2019-05-20T14:11:03.775Z,11.73
2019-05-20T14:13:25.320Z,13.30
2019-05-20T14:15:55.183Z,11.63
2019-05-20T14:18:25.083Z,12.30
2019-05-20T14:20:55.113Z,21.13
2019-05-20T14:23:25.056Z,12.00
2019-05-20T14:25:54.977Z,11.70
2019-05-20T14:28:25.017Z,13.33
2019-05-20T14:30:54.909Z,12.27
2019-05-20T14:33:24.769Z,14.57
2019-05-20T14:35:54.704Z,13.17
2019-05-20T14:38:24.639Z,11.13
2019-05-20T14:40:54.603Z,14.33
2019-05-20T14:43:24.706Z,11.43
2019-05-20T14:45:54.572Z,12.53
2019-05-20T14:48:25.559Z,12.40
2019-05-20T14:50:55.476Z,11.63
2019-05-20T14:53:25.359Z,11.43
2019-05-20T14:55:55.328Z,12.27
2019-05-20T14:58:25.290Z,10.40
2019-05-20T15:00:55.155Z,11.83
2019-05-20T15:03:25.025Z,13.50
2019-05-20T15:05:55.012Z,10.80
2019-05-20T15:08:25.120Z,12.03
2019-05-20T15:10:55.015Z,11.23
2019-05-20T15:13:24.965Z,11.47
2019-05-20T15:15:54.916Z,12.83
2019-05-20T15:18:25.837Z,15.90
2019-05-20T15:20:55.704Z,11.93
2019-05-20T15:23:25.741Z,10.97
2019-05-20T15:25:58.175Z,14.83
2019-05-20T15:28:28.181Z,10.97
2019-05-20T15:30:58.254Z,12.17
2019-05-20T15:33:28.343Z,13.77
2019-05-20T15:35:58.277Z,17.60
2019-05-20T15:38:28.393Z,13.93
2019-05-20T15:40:58.256Z,13.60
2019-05-20T15:43:28.500Z,12.33
2019-05-20T15:45:58.392Z,10.87
2019-05-20T15:48:29.351Z,11.60
2019-05-20T15:50:59.232Z,9.50
2019-05-20T15:53:29.200Z,9.97
2019-05-20T15:55:59.144Z,9.07
2019-05-20T15:58:29.221Z,10.60
2019-05-20T16:00:59.111Z,9.97
2019-05-20T16:03:29.013Z,10.80
2019-05-20T16:05:59.890Z,9.30
2019-05-20T16:08:30.132Z,12.63
2019-05-20T16:11:00.275Z,11.30
2019-05-20T16:13:30.351Z,9.57
2019-05-20T16:16:00.225Z,11.63
2019-05-20T16:18:30.243Z,13.77
2019-05-20T16:21:00.206Z,14.00
2019-05-20T16:23:31.100Z,16.43
2019-05-20T16:26:01.009Z,13.83
2019-05-20T16:28:31.031Z,13.23
2019-05-20T16:31:01.058Z,11.87
2019-05-20T16:33:31.150Z,13.47
2019-05-20T16:36:00.980Z,12.50
2019-05-20T16:38:30.893Z,13.57
2019-05-20T16:41:00.805Z,15.30
2019-05-20T16:43:30.740Z,16.27
2019-05-20T16:46:00.655Z,15.33
2019-05-20T16:48:30.580Z,15.23
2019-05-20T16:51:00.572Z,14.97
2019-05-20T16:53:30.655Z,16.00
2019-05-20T16:56:00.689Z,14.43
2019-05-20T16:58:30.824Z,13.80
2019-05-20T17:01:00.735Z,15.47
2019-05-20T17:03:30.641Z,22.63
2019-05-20T17:06:00.544Z,17.83
2019-05-20T17:08:30.483Z,16.37
2019-05-20T17:11:00.534Z,15.57
2019-05-20T17:13:30.439Z,18.13
2019-05-20T17:16:00.304Z,15.70
2019-05-20T17:18:30.552Z,18.13
2019-05-20T17:21:00.451Z,17.27
2019-05-20T17:23:30.612Z,19.00
2019-05-20T17:26:00.611Z,18.03
2019-05-20T17:28:30.673Z,17.23
2019-05-20T17:31:00.687Z,20.23
2019-05-20T17:33:30.551Z,17.37
2019-05-20T17:36:00.569Z,17.27
2019-05-20T17:38:30.600Z,19.00
2019-05-20T17:41:00.488Z,18.17
2019-05-20T17:43:30.608Z,19.53
2019-05-20T17:46:00.677Z,16.80
2019-05-20T17:48:30.745Z,16.80
2019-05-20T17:51:00.774Z,13.77
2019-05-20T17:53:30.720Z,15.20
2019-05-20T17:56:01.787Z,14.17
2019-05-20T17:58:31.828Z,18.63
2019-05-20T18:01:14.765Z,17.10
2019-05-20T18:03:34.188Z,16.13
2019-05-20T18:06:04.467Z,15.70
2019-05-20T18:08:36.714Z,12.53
2019-05-20T18:11:06.769Z,16.70
2019-05-20T18:13:36.663Z,13.90
2019-05-20T18:16:06.675Z,13.23
2019-05-20T18:18:36.596Z,12.97
2019-05-20T18:21:06.520Z,12.40
2019-05-20T18:23:36.452Z,14.23
2019-05-20T18:26:08.711Z,13.00
2019-05-20T18:28:38.726Z,14.90
2019-05-20T18:31:08.808Z,15.60
2019-05-20T18:33:38.731Z,14.10
2019-05-20T18:36:08.746Z,15.83
2019-05-20T18:38:38.676Z,14.87
2019-05-20T18:41:08.695Z,17.40
2019-05-20T18:43:38.625Z,17.00
2019-05-20T18:46:08.512Z,22.23
2019-05-20T18:48:38.506Z,17.83
2019-05-20T18:51:08.496Z,16.10
2019-05-20T18:53:38.584Z,20.37
2019-05-20T18:56:08.571Z,20.33
2019-05-20T18:58:38.523Z,18.17
2019-05-20T19:01:08.630Z,19.93
2019-05-20T19:03:39.095Z,17.53
2019-05-20T19:06:09.525Z,18.60
2019-05-20T19:08:39.498Z,17.03
2019-05-20T19:11:09.626Z,19.17
2019-05-20T19:13:39.519Z,17.27
2019-05-20T19:16:09.496Z,16.00
2019-05-20T19:18:39.700Z,18.83
2019-05-20T19:21:09.615Z,22.63
2019-05-20T19:23:39.846Z,21.47
2019-05-20T19:26:22.460Z,20.30
2019-05-20T19:28:41.596Z,23.10
2019-05-20T19:31:12.985Z,18.70
2019-05-20T19:33:42.991Z,24.10
2019-05-20T19:36:12.861Z,20.30
2019-05-20T19:38:43.037Z,19.27
2019-05-20T19:41:13.120Z,19.73
2019-05-20T19:43:43.936Z,22.03
2019-05-20T19:46:15.118Z,20.70
2019-05-20T19:48:45.115Z,22.23
2019-05-20T19:51:15.221Z,19.83
2019-05-20T19:53:45.070Z,24.83
2019-05-20T19:56:14.921Z,21.20
2019-05-20T19:58:44.880Z,20.20
2019-05-20T20:01:14.677Z,20.17
2019-05-20T20:03:44.633Z,24.97
2019-05-20T20:06:14.504Z,21.50
2019-05-20T20:08:44.597Z,23.33
2019-05-20T20:11:14.433Z,23.50
2019-05-20T20:13:44.286Z,25.50
2019-05-20T20:16:17.902Z,26.07
2019-05-20T20:18:45.825Z,26.17
2019-05-20T20:21:15.694Z,23.23
2019-05-20T20:23:45.541Z,24.20
2019-05-20T20:26:15.512Z,25.60
2019-05-20T20:28:45.432Z,22.37
2019-05-20T20:31:15.287Z,26.00
2019-05-20T20:33:45.135Z,25.60
2019-05-20T20:36:14.972Z,24.87
2019-05-20T20:38:44.887Z,23.60
2019-05-20T20:41:14.738Z,27.70
2019-05-20T20:43:44.588Z,26.33
2019-05-20T20:46:14.424Z,25.70
2019-05-20T20:48:44.771Z,25.27
2019-05-20T20:51:14.752Z,26.07
2019-05-20T20:53:44.627Z,25.40
2019-05-20T20:56:24.643Z,25.47
2019-05-20T20:58:46.049Z,28.87
2019-05-20T21:01:15.916Z,30.27
2019-05-20T21:03:45.773Z,26.40
2019-05-20T21:06:15.640Z,27.70
2019-05-20T21:08:45.717Z,24.53
2019-05-20T21:11:15.563Z,26.43
2019-05-20T21:13:45.412Z,25.73
2019-05-20T21:16:15.248Z,26.97
2019-05-20T21:18:45.343Z,26.77
2019-05-20T21:21:15.972Z,25.20
2019-05-20T21:23:45.827Z,27.00
2019-05-20T21:26:15.764Z,27.47
2019-05-20T21:28:46.164Z,29.33
2019-05-20T21:31:16.003Z,23.83
2019-05-20T21:33:45.852Z,23.47
2019-05-20T21:36:15.711Z,24.07
2019-05-20T21:38:45.624Z,25.43
2019-05-20T21:41:16.491Z,26.90
2019-05-20T21:43:46.361Z,26.20
2019-05-20T21:46:16.207Z,22.90
2019-05-20T21:48:47.156Z,28.03
2019-05-20T21:51:17.016Z,25.90
2019-05-20T21:53:46.877Z,28.23
2019-05-20T21:56:16.749Z,26.80
2019-05-20T21:58:46.662Z,27.30
2019-05-20T22:01:16.826Z,26.37
2019-05-20T22:03:46.655Z,23.60
2019-05-20T22:06:16.512Z,28.23
2019-05-20T22:08:46.429Z,30.10
2019-05-20T22:11:16.283Z,26.50
2019-05-20T22:13:46.132Z,30.73
2019-05-20T22:16:16.084Z,32.33
2019-05-20T22:18:45.979Z,28.23
2019-05-20T22:21:17.456Z,33.73
2019-05-20T22:23:55.286Z,31.77
2019-05-20T22:26:25.596Z,29.13
2019-05-20T22:28:55.592Z,30.43
2019-05-20T22:31:25.544Z,28.90
2019-05-20T22:33:55.400Z,41.53
2019-05-20T22:36:25.260Z,31.63
2019-05-20T22:38:55.252Z,25.87
2019-05-20T22:41:25.135Z,22.23
2019-05-20T22:43:55.016Z,21.40
2019-05-20T22:46:24.872Z,19.40
2019-05-20T22:48:54.881Z,20.00
2019-05-20T22:51:24.764Z,21.47
2019-05-20T22:53:54.635Z,21.30
2019-05-20T22:56:24.480Z,21.20
2019-05-20T22:58:54.904Z,18.87
2019-05-20T23:01:24.952Z,16.50
2019-05-20T23:03:56.638Z,16.27
2019-05-20T23:06:26.346Z,18.37
2019-05-20T23:08:57.175Z,21.47
2019-05-20T23:11:27.036Z,20.63
2019-05-20T23:13:56.905Z,21.43
2019-05-20T23:16:26.759Z,20.53
2019-05-20T23:18:56.629Z,18.87
2019-05-20T23:21:26.492Z,19.97
2019-05-20T23:23:56.364Z,18.37
2019-05-20T23:26:26.436Z,21.00
2019-05-20T23:28:57.316Z,19.50
2019-05-20T23:31:27.168Z,19.67
2019-05-20T23:34:11.699Z,19.83
2019-05-20T23:36:28.571Z,20.37
2019-05-20T23:38:58.508Z,20.90
2019-05-20T23:41:28.364Z,24.17
2019-05-20T23:43:58.257Z,23.93
2019-05-20T23:46:28.113Z,18.97
2019-05-20T23:48:59.008Z,21.00
2019-05-20T23:51:28.847Z,24.97
2019-05-20T23:53:58.694Z,21.53
2019-05-20T23:56:28.572Z,23.67
2019-05-20T23:58:58.587Z,25.63
